Flight Track Log - Related Links

Times and Time Zones

All times are in EDT time to prevent confusion due to time zone crossing. See the UAL4234 flight status page for this flight to view local times or setup timezone preferences in your user account.

Time Position Orientation Groundspeed Altitude Reporting Facility
EDT Latitude Longitude Course Direction KTS MPH feet Rate Location/Type
Fri 07:22:00 AM 30.7202 -86.6268 337° Northwest  Level FlightAware Approximate
Fri 07:22:04 AM 30.6433 -86.5069 265° West 439 505 4,800  Level Jacksonville Center
Fri 07:23:00 AM 30.8055 -86.6622 341° North  Level FlightAware Approximate
Fri 07:23:04 AM 30.7222 -86.5172 354° North 339 390 7,100  Level Jacksonville Center
Fri 07:24:00 AM 30.8144 -86.7582 264° West  Level FlightAware Approximate
Fri 07:24:04 AM 30.7972 -86.5272 353° North 296 341 9,400  Level Jacksonville Center
Fri 07:25:00 AM 30.8049 -86.8631 264° West  Level FlightAware Approximate
Fri 07:25:04 AM 30.8825 -86.5331 357° North 289 333 11,000  Level Jacksonville Center
Fri 07:26:00 AM 30.8000 -86.9682 270° West  Level FlightAware Approximate
Fri 07:26:04 AM 30.9372 -86.5956 316° Northwest 273 314 12,300  Level Jacksonville Center
Fri 07:27:00 AM 30.7948 -87.0734 265° West  Level FlightAware Approximate
Fri 07:27:04 AM 30.9172 -86.7039 258° West 234 269 13,800  Level Jacksonville Center
Fri 07:28:04 AM 30.9164 -86.8031 269° West 269 310 14,900 1,100 Climbing Jacksonville Center
Fri 07:29:04 AM 30.9150 -86.9072 269° West 303 349 16,000 1,055 Climbing Jacksonville Center
Fri 07:30:49 AM 30.9175 -87.0775 271° West 326 375 17,800 1,012 Climbing Houston Center
Fri 07:31:50 AM 30.9242 -87.1836 274° West 329 379 18,800 1,033 Climbing Houston Center
Fri 07:32:51 AM 30.9297 -87.2925 273° West 335 386 19,900 1,131 Climbing Houston Center
Fri 07:33:52 AM 30.9356 -87.4247 273° West 341 392 21,100 1,131 Climbing Houston Center
Fri 07:34:53 AM 30.9200 -87.5350 261° West 355 409 22,200 1,082 Climbing Houston Center
Fri 07:35:54 AM 30.8897 -87.6392 251° West 344 396 23,300 1,033 Climbing Houston Center
Fri 07:36:55 AM 30.8597 -87.7467 252° West 351 404 24,300 1,033 Climbing Houston Center
Fri 07:37:56 AM 30.8306 -87.8531 252° West 349 402 25,400 1,131 Climbing Houston Center
Fri 07:38:57 AM 30.8008 -87.9589 252° West 347 399 26,600 1,230 Climbing Houston Center
Fri 07:39:58 AM 30.7706 -88.0625 251° West 342 394 27,900 1,230 Climbing Houston Center
Fri 07:40:59 AM 30.7425 -88.1647 252° West 336 387 29,100 1,180 Climbing Houston Center
Fri 07:42:00 AM 30.7142 -88.2650 252° West 329 379 30,300 1,230 Climbing Houston Center
Fri 07:43:01 AM 30.6842 -88.3722 252° West 330 380 31,600 1,230 Climbing Houston Center
Fri 07:44:02 AM 30.6550 -88.4739 252° West 331 381 32,800 1,131 Climbing Houston Center
Fri 07:45:03 AM 30.6267 -88.5742 252° West 326 375 33,900 590 Climbing Houston Center
Fri 07:46:04 AM 30.5978 -88.6775 252° West 335 386 34,000 49 Climbing Houston Center
Fri 07:47:05 AM 30.5664 -88.7869 252° West 355 409 34,000  Level Houston Center
Fri 07:48:06 AM 30.5347 -88.8978 252° West 361 415 34,000  Level Houston Center
Fri 07:49:07 AM 30.4978 -89.0258 252° West 371 427 34,000  Level Houston Center
Fri 07:50:08 AM 30.4658 -89.1372 252° West 366 421 34,000  Level Houston Center
Fri 07:51:09 AM 30.4336 -89.2478 251° West 363 418 34,000  Level Houston Center
Fri 07:52:10 AM 30.4025 -89.3575 252° West 361 415 34,000  Level Houston Center
Fri 07:53:11 AM 30.3703 -89.4667 251° West 359 413 34,000  Level Houston Center
Fri 07:54:12 AM 30.3392 -89.5767 252° West 359 413 34,000  Level Houston Center
Fri 07:55:13 AM 30.3039 -89.6942 251° West 360 414 34,000  Level Houston Center
Fri 07:56:14 AM 30.2683 -89.8042 250° West 365 420 34,000  Level Houston Center
Fri 07:57:16 AM 30.2386 -89.9172 253° West 366 421 34,000  Level Houston Center
Fri 07:58:17 AM 30.2061 -90.0278 251° West 363 418 34,000  Level Houston Center
Fri 07:59:18 AM 30.1731 -90.1381 251° West 363 418 34,000  Level Houston Center
Fri 08:00:19 AM 30.1403 -90.2492 251° West 364 419 34,000  Level Houston Center
Fri 08:01:20 AM 30.1064 -90.3611 251° West 368 423 34,000  Level Houston Center
Fri 08:02:21 AM 30.0653 -90.4950 250° West 369 425 34,000  Level Houston Center
Fri 08:03:22 AM 30.0317 -90.6072 251° West 370 426 34,000  Level Houston Center
Fri 08:04:24 AM 29.9986 -90.7186 251° West 369 425 34,000 -49 Level Houston Center
Fri 08:05:25 AM 29.9644 -90.8303 251° West 369 425 33,900  Descending Houston Center
Fri 08:06:26 AM 29.9300 -90.9392 250° West 364 419 34,000 49 Climbing Houston Center
Fri 08:07:27 AM 29.8969 -91.0483 251° West 360 414 34,000  Level Houston Center
Fri 08:08:28 AM 29.8636 -91.1569 251° West 360 414 34,000  Level Houston Center
Fri 08:09:29 AM 29.8314 -91.2667 251° West 362 417 34,000  Level Houston Center
Fri 08:10:30 AM 29.7947 -91.3789 249° West 372 428 34,000  Level Houston Center
Fri 08:11:32 AM 29.7619 -91.4889 251° West 367 422 34,000  Level Houston Center
Fri 08:12:33 AM 29.7278 -91.5969 250° West 362 417 34,000  Level Houston Center
Fri 08:13:34 AM 29.6875 -91.7281 251° West 362 417 34,000  Level Houston Center
Fri 08:14:35 AM 29.6519 -91.8411 250° West 364 419 34,000  Level Houston Center
Fri 08:15:37 AM 29.6169 -91.9517 250° West 368 423 34,000  Level Houston Center
Fri 08:16:38 AM 29.5806 -92.0647 250° West 375 432 34,000  Level Houston Center
Fri 08:17:39 AM 29.5456 -92.1758 250° West 372 428 34,000  Level Houston Center
Fri 08:18:41 AM 29.5106 -92.2875 250° West 372 428 34,000  Level Houston Center
Fri 08:19:42 AM 29.4753 -92.3975 250° West 369 425 34,000  Level Houston Center
Fri 08:20:43 AM 29.4583 -92.5133 260° West 373 429 34,000  Level Houston Center
Fri 08:21:45 AM 29.4647 -92.6342 274° West 379 436 34,000  Level Houston Center
Fri 08:22:46 AM 29.4697 -92.7528 273° West 374 430 34,000  Level Houston Center
Fri 08:23:48 AM 29.4750 -92.8742 273° West 379 436 34,000 -146 Level Houston Center
Fri 08:24:49 AM 29.4814 -93.0181 273° West 376 433 33,700 -1,180 Descending Houston Center
Fri 08:25:50 AM 29.4875 -93.1397 273° West 380 437 31,600 -2,049 Descending Houston Center
Fri 08:26:52 AM 29.4919 -93.2617 272° West 382 440 29,500 -2,049 Descending Houston Center
Fri 08:27:53 AM 29.4972 -93.3856 273° West 388 447 27,400 -2,098 Descending Houston Center
Fri 08:28:55 AM 29.5031 -93.5142 273° West 400 460 25,200 -2,098 Descending Houston Center
Fri 08:29:56 AM 29.5067 -93.6431 272° West 403 464 23,100 -2,000 Descending Houston Center
Fri 08:30:58 AM 29.5125 -93.7669 273° West 392 451 21,100 -1,951 Descending Houston Center
Fri 08:31:59 AM 29.5169 -93.8875 272° West 382 440 19,100 -2,016 Descending Houston Center
Fri 08:33:00 AM 29.5206 -94.0075 272° West 377 434 17,000 -1,902 Descending Houston Center
Fri 08:34:02 AM 29.5258 -94.1192 273° West 356 410 15,200 -1,674 Descending Houston Center
Fri 08:35:09 AM 29.5297 -94.2567 272° West 327 376 13,400 -1,073 Descending Houston Center
Fri 08:36:05 AM 29.5347 -94.3464 274° West 310 357 13,000 -621 Descending Houston Center
Fri 08:37:05 AM 29.5675 -94.4250 296° West 251 289 12,200 -1,339 Descending Houston Center
Fri 08:38:06 AM 29.6006 -94.5047 296° West 264 304 10,300 -1,805 Descending Houston Center
Fri 08:39:08 AM 29.6350 -94.5775 299° West 260 299 8,500 -1,692 Descending Houston Center
Fri 08:40:03 AM 29.6806 -94.6342 313° West 254 292 7,000 -1,448 Descending Houston Center
Fri 08:41:04 AM 29.7283 -94.6931 313° West 254 292 5,700 -1,191 Descending Houston Center
Fri 08:42:14 AM 29.7761 -94.7497 314° West 251 289 4,400 -797 Descending Houston Center
Fri 08:43:12 AM 29.8228 -94.8231 306° West 250 288 4,000 -195 Descending Houston Center
Fri 08:44:17 AM 29.8589 -94.8950 300° West 253 291 4,000 -378 Level Houston Center
Fri 08:45:19 AM 29.8939 -94.9656 300° West 256 295 3,200 -732 Descending Houston Center
Fri 08:46:20 AM 29.9292 -95.0361 300° West 256 295 2,500 -585 Descending Houston Center
Fri 08:47:22 AM 29.9636 -95.1072 299° West 256 295 2,000 -203 Descending Houston Center
Fri 08:48:18 AM 29.9778 -95.1775 283° West 192 221 2,100 107 Climbing Houston Center

Login

Don't have an account? Register now (free) for customized features, flight alerts, and more!